createdAt,value
2022-08-30T00:00:07.811Z,16.16
2022-08-30T00:02:56.377Z,16.17
2022-08-30T00:05:25.765Z,16.13
2022-08-30T00:07:54.405Z,16.13
2022-08-30T00:10:24.215Z,16.13
2022-08-30T00:12:53.352Z,16.13
2022-08-30T00:15:22.700Z,16.13
2022-08-30T00:17:51.555Z,16.13
2022-08-30T00:20:25.195Z,16.13
2022-08-30T00:22:54.386Z,16.13
2022-08-30T00:25:23.193Z,16.12
2022-08-30T00:27:51.705Z,16.13
2022-08-30T00:30:21.504Z,16.14
2022-08-30T00:32:50.084Z,16.12
2022-08-30T00:35:20.209Z,16.12
2022-08-30T00:37:50.315Z,16.12
2022-08-30T00:40:20.132Z,16.13
2022-08-30T00:42:59.276Z,16.16
2022-08-30T00:45:32.005Z,16.16
2022-08-30T00:48:02.004Z,16.19
2022-08-30T00:50:35.719Z,16.17
2022-08-30T00:53:06.248Z,16.20
2022-08-30T00:55:35.755Z,16.19
2022-08-30T00:58:13.565Z,16.17
2022-08-30T01:00:42.148Z,16.19
2022-08-30T01:03:10.928Z,16.16
2022-08-30T01:05:39.565Z,16.14
2022-08-30T01:08:08.476Z,16.13
2022-08-30T01:10:38.412Z,16.10
2022-08-30T01:13:08.966Z,16.09
2022-08-30T01:15:37.718Z,16.07
2022-08-30T01:18:07.894Z,16.09
2022-08-30T01:20:44.849Z,16.04
2022-08-30T01:23:18.048Z,16.01
2022-08-30T01:25:49.536Z,16.00
2022-08-30T01:28:21.292Z,15.97
2022-08-30T01:30:50.990Z,15.96
2022-08-30T01:33:21.375Z,15.93
2022-08-30T01:35:54.787Z,15.86
2022-08-30T01:38:27.291Z,15.90
2022-08-30T01:40:59.112Z,15.89
2022-08-30T01:43:28.617Z,15.87
2022-08-30T01:45:57.789Z,15.85
2022-08-30T01:48:31.281Z,15.83
2022-08-30T01:50:59.959Z,15.78
2022-08-30T01:53:28.649Z,15.76
2022-08-30T01:56:00.294Z,15.76
2022-08-30T01:58:28.938Z,15.73
2022-08-30T02:00:58.187Z,15.73
2022-08-30T02:03:32.587Z,15.69
2022-08-30T02:06:04.369Z,15.69
2022-08-30T02:08:34.569Z,15.65
2022-08-30T02:11:04.059Z,15.62
2022-08-30T02:13:33.298Z,15.62
2022-08-30T02:16:02.294Z,15.61
2022-08-30T02:18:34.057Z,15.57
2022-08-30T02:21:03.602Z,15.55
2022-08-30T02:23:32.083Z,15.52
2022-08-30T02:26:01.248Z,15.52
2022-08-30T02:28:29.882Z,15.51
2022-08-30T02:30:58.998Z,15.50
2022-08-30T02:33:27.729Z,15.51
2022-08-30T02:35:56.323Z,15.47
2022-08-30T02:38:26.210Z,15.48
2022-08-30T02:40:54.760Z,15.45
2022-08-30T02:43:23.693Z,15.48
2022-08-30T02:45:52.567Z,15.50
2022-08-30T02:48:21.218Z,15.48
2022-08-30T02:50:51.928Z,15.50
2022-08-30T02:53:21.492Z,15.45
2022-08-30T02:55:50.226Z,15.44
2022-08-30T02:58:18.674Z,15.42
2022-08-30T03:00:47.332Z,15.40
2022-08-30T03:03:16.345Z,15.38
2022-08-30T03:05:45.172Z,15.38
2022-08-30T03:08:14.037Z,15.38
2022-08-30T03:10:42.544Z,15.34
2022-08-30T03:13:11.336Z,15.34
2022-08-30T03:15:40.235Z,15.30
2022-08-30T03:18:09.990Z,15.31
2022-08-30T03:20:40.796Z,15.29
2022-08-30T03:23:11.660Z,15.25
2022-08-30T03:25:50.547Z,15.21
2022-08-30T03:28:19.104Z,15.21
2022-08-30T03:30:47.972Z,15.20
2022-08-30T03:33:18.202Z,15.20
2022-08-30T03:35:49.230Z,15.15
2022-08-30T03:38:18.324Z,15.14
2022-08-30T03:40:47.773Z,15.11
2022-08-30T03:43:16.966Z,15.10
2022-08-30T03:45:45.737Z,15.10
2022-08-30T03:48:14.266Z,15.09
2022-08-30T03:50:42.816Z,15.09
2022-08-30T03:53:11.262Z,15.04
2022-08-30T03:55:40.111Z,15.04
2022-08-30T03:58:08.711Z,15.02
2022-08-30T04:00:37.768Z,15.03
2022-08-30T04:03:06.354Z,15.00
2022-08-30T04:05:34.902Z,15.02
2022-08-30T04:08:04.397Z,15.00
2022-08-30T04:10:33.696Z,14.97
2022-08-30T04:13:02.452Z,14.99
2022-08-30T04:15:30.947Z,14.99
2022-08-30T04:17:59.533Z,14.99
2022-08-30T04:20:28.233Z,15.00
2022-08-30T04:22:57.639Z,15.02
2022-08-30T04:25:26.616Z,15.03
2022-08-30T04:27:55.347Z,15.09
2022-08-30T04:30:23.869Z,15.09
2022-08-30T04:32:56.748Z,15.11
2022-08-30T04:35:27.695Z,15.14
2022-08-30T04:37:57.015Z,15.17
2022-08-30T04:40:25.555Z,15.20
2022-08-30T04:42:55.681Z,15.21
2022-08-30T04:45:24.242Z,15.27
2022-08-30T04:47:52.771Z,15.31
2022-08-30T04:50:26.234Z,15.34
2022-08-30T04:52:54.883Z,15.40
2022-08-30T04:55:25.413Z,15.42
2022-08-30T04:57:54.120Z,15.52
2022-08-30T05:00:23.034Z,15.54
2022-08-30T05:02:51.678Z,15.62
2022-08-30T05:05:38.999Z,15.65
2022-08-30T05:08:08.932Z,15.69
2022-08-30T05:10:40.068Z,15.78
2022-08-30T05:13:09.349Z,15.80
2022-08-30T05:15:39.772Z,15.82
2022-08-30T05:18:13.334Z,15.89
2022-08-30T05:20:44.237Z,15.90
2022-08-30T05:23:12.856Z,15.94
2022-08-30T05:25:42.771Z,15.96
2022-08-30T05:28:11.312Z,15.98
2022-08-30T05:30:39.831Z,16.00
2022-08-30T05:33:08.355Z,16.04
2022-08-30T05:35:38.075Z,16.10
2022-08-30T05:38:07.083Z,16.13
2022-08-30T05:40:41.956Z,16.17
2022-08-30T05:43:11.639Z,16.20
2022-08-30T05:45:40.288Z,16.23
2022-08-30T05:48:09.222Z,16.24
2022-08-30T05:50:41.690Z,16.23
2022-08-30T05:53:10.191Z,16.23
2022-08-30T05:55:41.686Z,16.27
2022-08-30T05:58:10.274Z,16.25
2022-08-30T06:00:38.799Z,16.28
2022-08-30T06:03:07.473Z,16.34
2022-08-30T06:05:38.824Z,16.40
2022-08-30T06:08:07.402Z,16.48
2022-08-30T06:10:35.957Z,16.56
2022-08-30T06:13:04.974Z,16.70
2022-08-30T06:15:33.514Z,16.80
2022-08-30T06:18:02.359Z,16.86
2022-08-30T06:20:31.564Z,16.96
2022-08-30T06:23:00.559Z,17.02
2022-08-30T06:25:41.127Z,17.03
2022-08-30T06:28:10.856Z,17.09
2022-08-30T06:30:41.475Z,17.10
2022-08-30T06:33:10.861Z,17.10
2022-08-30T06:35:56.726Z,17.11
2022-08-30T06:38:28.005Z,17.15
2022-08-30T06:40:56.695Z,17.20
2022-08-30T06:43:25.885Z,17.23
2022-08-30T06:45:55.705Z,17.27
2022-08-30T06:48:24.195Z,17.31
2022-08-30T06:50:54.724Z,17.35
2022-08-30T06:53:23.676Z,17.41
2022-08-30T06:55:57.799Z,17.55
2022-08-30T06:58:27.294Z,17.62
2022-08-30T07:00:55.874Z,17.73
2022-08-30T07:03:26.745Z,17.82
2022-08-30T07:05:59.542Z,17.89
2022-08-30T07:08:28.738Z,17.96
2022-08-30T07:11:00.187Z,18.03
2022-08-30T07:13:28.868Z,18.14
2022-08-30T07:15:58.092Z,18.21
2022-08-30T07:18:45.176Z,18.28
2022-08-30T07:21:15.567Z,18.34
2022-08-30T07:23:48.306Z,18.44
2022-08-30T07:26:21.180Z,18.52
2022-08-30T07:28:50.564Z,18.66
2022-08-30T07:31:27.278Z,18.83
2022-08-30T07:33:57.141Z,18.91
2022-08-30T07:36:25.978Z,19.08
2022-08-30T07:38:55.070Z,19.25
2022-08-30T07:41:26.881Z,19.35
2022-08-30T07:43:56.655Z,19.45
2022-08-30T07:46:26.590Z,19.55
2022-08-30T07:48:55.456Z,19.66
2022-08-30T07:51:26.181Z,19.72
2022-08-30T07:53:55.884Z,19.87
2022-08-30T07:56:25.669Z,19.94
2022-08-30T07:58:54.654Z,20.08
2022-08-30T08:01:24.581Z,20.20
2022-08-30T08:03:53.275Z,20.27
2022-08-30T08:06:22.980Z,20.32
2022-08-30T08:08:53.271Z,20.42
2022-08-30T08:11:27.581Z,20.52
2022-08-30T08:14:00.035Z,20.60
2022-08-30T08:16:30.618Z,20.69
2022-08-30T08:18:59.320Z,20.79
2022-08-30T08:21:28.933Z,20.97
2022-08-30T08:23:58.340Z,21.13
2022-08-30T08:26:26.927Z,21.22
2022-08-30T08:28:55.540Z,21.22
2022-08-30T08:31:33.795Z,21.31
2022-08-30T08:34:05.144Z,21.49
2022-08-30T08:36:34.598Z,21.56
2022-08-30T08:39:04.582Z,21.60
2022-08-30T08:41:44.632Z,21.60
2022-08-30T08:44:22.819Z,21.59
2022-08-30T08:46:59.336Z,21.70
2022-08-30T08:49:28.300Z,21.99
2022-08-30T08:52:17.556Z,22.73
2022-08-30T08:54:53.235Z,23.87
2022-08-30T08:57:24.749Z,24.31
2022-08-30T08:59:54.591Z,24.54
2022-08-30T09:02:28.498Z,24.34
2022-08-30T09:05:01.505Z,24.08
2022-08-30T09:07:36.610Z,23.82
2022-08-30T09:10:06.957Z,23.56
2022-08-30T09:12:35.718Z,23.31
2022-08-30T09:15:09.346Z,23.04
2022-08-30T09:17:48.863Z,22.76
2022-08-30T09:20:27.000Z,22.63
2022-08-30T09:22:56.191Z,22.48
2022-08-30T09:25:29.697Z,22.34
2022-08-30T09:28:12.599Z,22.24
2022-08-30T09:30:57.287Z,22.10
2022-08-30T09:33:25.844Z,21.94
2022-08-30T09:35:54.505Z,21.83
2022-08-30T09:38:26.505Z,21.80
2022-08-30T09:41:00.327Z,21.83
2022-08-30T09:43:31.260Z,21.80
2022-08-30T09:46:10.126Z,21.77
2022-08-30T09:48:43.385Z,21.72
2022-08-30T09:51:40.178Z,21.69
2022-08-30T09:54:19.095Z,21.62
2022-08-30T09:57:00.609Z,21.63
2022-08-30T09:59:46.716Z,21.70
2022-08-30T10:02:43.112Z,21.83
2022-08-30T10:05:20.118Z,21.96
2022-08-30T10:07:58.401Z,22.13
2022-08-30T10:10:35.545Z,22.27
2022-08-30T10:13:15.269Z,22.29
2022-08-30T10:15:50.520Z,22.31
2022-08-30T10:18:26.225Z,22.28
2022-08-30T10:21:04.883Z,22.22
2022-08-30T10:23:41.494Z,22.18
2022-08-30T10:26:27.269Z,22.08
2022-08-30T10:29:03.227Z,21.89
2022-08-30T10:31:41.741Z,21.78
2022-08-30T10:34:16.623Z,21.72
2022-08-30T10:36:51.196Z,21.66
2022-08-30T10:39:24.255Z,21.65
2022-08-30T10:41:59.802Z,21.65
2022-08-30T10:44:32.289Z,21.69
2022-08-30T10:47:10.728Z,21.70
2022-08-30T10:49:44.399Z,21.73
2022-08-30T10:52:28.884Z,21.83
2022-08-30T10:55:02.162Z,21.86
2022-08-30T10:57:30.956Z,21.92
2022-08-30T11:00:06.069Z,21.93
2022-08-30T11:03:04.595Z,21.89
2022-08-30T11:05:54.409Z,21.86
2022-08-30T11:08:42.453Z,21.94
2022-08-30T11:11:21.245Z,21.97
2022-08-30T11:13:54.610Z,21.96
2022-08-30T11:16:37.447Z,21.94
2022-08-30T11:19:16.287Z,21.92
2022-08-30T11:21:49.608Z,21.97
2022-08-30T11:24:21.757Z,21.96
2022-08-30T11:26:59.970Z,21.99
2022-08-30T11:29:35.516Z,21.92
2022-08-30T11:32:45.701Z,21.86
2022-08-30T11:35:40.352Z,21.73
2022-08-30T11:38:40.965Z,21.69
2022-08-30T11:41:12.014Z,21.70
2022-08-30T11:43:55.076Z,21.70
2022-08-30T11:46:39.758Z,21.73
2022-08-30T11:49:45.609Z,21.80
2022-08-30T11:52:41.367Z,21.84
2022-08-30T11:55:25.262Z,21.92
2022-08-30T11:58:02.141Z,21.99
2022-08-30T12:00:35.551Z,22.05
2022-08-30T12:03:06.542Z,22.10
2022-08-30T12:05:55.078Z,22.10
2022-08-30T12:09:02.213Z,22.18
2022-08-30T12:12:05.510Z,22.28
2022-08-30T12:14:46.999Z,22.34
2022-08-30T12:18:15.273Z,22.39
2022-08-30T12:20:46.664Z,22.49
2022-08-30T12:23:17.936Z,22.55
2022-08-30T12:25:46.927Z,22.66
2022-08-30T12:28:21.532Z,22.70
2022-08-30T12:30:52.722Z,22.75
2022-08-30T12:33:29.306Z,22.73
2022-08-30T12:35:59.077Z,22.76
2022-08-30T12:38:29.578Z,22.76
2022-08-30T12:41:00.865Z,22.72
2022-08-30T12:43:40.727Z,22.69
2022-08-30T12:46:15.306Z,22.58
2022-08-30T12:48:44.907Z,22.51
2022-08-30T12:51:29.097Z,22.43
2022-08-30T12:54:16.831Z,22.38
2022-08-30T12:56:57.962Z,22.32
2022-08-30T12:59:55.365Z,22.20
2022-08-30T13:02:26.892Z,22.13
2022-08-30T13:04:56.966Z,22.10
2022-08-30T13:07:32.750Z,22.07
2022-08-30T13:10:13.386Z,22.05
2022-08-30T13:12:57.917Z,21.93
2022-08-30T13:15:31.244Z,21.87
2022-08-30T13:18:18.401Z,21.86
2022-08-30T13:21:11.598Z,21.77
2022-08-30T13:23:41.505Z,21.72
2022-08-30T13:26:11.449Z,21.65
2022-08-30T13:28:53.493Z,21.62
2022-08-30T13:31:22.529Z,21.52
2022-08-30T13:33:52.842Z,21.45
2022-08-30T13:36:23.025Z,21.39
2022-08-30T13:38:53.512Z,21.34
2022-08-30T13:41:22.436Z,21.28
2022-08-30T13:46:42.960Z,21.25
2022-08-30T13:52:20.399Z,21.25
2022-08-30T13:54:50.548Z,21.28
2022-08-30T14:00:17.032Z,21.42
2022-08-30T14:02:54.235Z,21.49
2022-08-30T14:11:19.488Z,21.67
2022-08-30T14:16:44.265Z,21.70
2022-08-30T14:19:16.316Z,21.73
2022-08-30T14:21:48.727Z,21.73
2022-08-30T14:24:20.126Z,21.74
2022-08-30T14:26:51.528Z,21.76
2022-08-30T14:29:24.727Z,21.74
2022-08-30T14:31:53.792Z,21.73
2022-08-30T14:34:23.200Z,21.70
2022-08-30T14:36:51.790Z,21.63
2022-08-30T14:39:22.641Z,21.59
2022-08-30T14:41:53.901Z,21.53
2022-08-30T14:44:25.506Z,21.50
2022-08-30T14:46:55.173Z,21.44
2022-08-30T14:49:25.227Z,21.39
2022-08-30T14:51:55.569Z,21.37
2022-08-30T14:54:31.744Z,21.37
2022-08-30T14:57:00.277Z,21.35
2022-08-30T14:59:29.501Z,21.30
2022-08-30T15:02:01.267Z,21.28
2022-08-30T15:04:30.864Z,21.24
2022-08-30T15:07:00.009Z,21.14
2022-08-30T15:09:29.285Z,21.08
2022-08-30T15:12:00.757Z,21.01
2022-08-30T15:14:30.906Z,20.93
2022-08-30T15:17:02.025Z,20.83
2022-08-30T15:19:32.189Z,20.76
2022-08-30T15:22:02.197Z,20.64
2022-08-30T15:24:32.218Z,20.59
2022-08-30T15:27:02.014Z,20.48
2022-08-30T15:29:31.804Z,20.41
2022-08-30T15:32:02.997Z,20.36
2022-08-30T15:34:32.447Z,20.31
2022-08-30T15:37:01.647Z,20.27
2022-08-30T15:39:31.955Z,20.29
2022-08-30T15:42:01.505Z,20.25
2022-08-30T15:44:31.772Z,20.24
2022-08-30T15:47:00.554Z,20.22
2022-08-30T15:49:29.860Z,20.27
2022-08-30T15:52:01.582Z,20.24
2022-08-30T15:54:30.616Z,20.18
2022-08-30T15:57:01.662Z,20.18
2022-08-30T15:59:32.518Z,20.17
2022-08-30T16:02:01.141Z,20.13
2022-08-30T16:04:30.649Z,20.11
2022-08-30T16:07:00.283Z,20.08
2022-08-30T16:09:29.944Z,20.03
2022-08-30T16:12:02.952Z,19.96
2022-08-30T16:14:33.924Z,19.93
2022-08-30T16:17:02.970Z,19.87
2022-08-30T16:19:32.060Z,19.86
2022-08-30T16:22:01.565Z,19.77
2022-08-30T16:24:30.809Z,19.73
2022-08-30T16:26:59.564Z,19.68
2022-08-30T16:29:28.097Z,19.55
2022-08-30T16:31:58.496Z,19.44
2022-08-30T16:34:27.145Z,19.35
2022-08-30T16:36:55.748Z,19.25
2022-08-30T16:39:25.030Z,19.17
2022-08-30T16:41:53.747Z,19.10
2022-08-30T16:44:23.508Z,19.04
2022-08-30T16:47:01.643Z,18.97
2022-08-30T16:49:30.401Z,18.94
2022-08-30T16:52:01.761Z,18.88
2022-08-30T16:54:32.211Z,18.88
2022-08-30T16:57:01.579Z,18.83
2022-08-30T16:59:30.201Z,18.83
2022-08-30T17:02:00.063Z,18.80
2022-08-30T17:04:28.704Z,18.76
2022-08-30T17:06:57.784Z,18.76
2022-08-30T17:09:27.977Z,18.72
2022-08-30T17:11:57.574Z,18.70
2022-08-30T17:14:29.361Z,18.68
2022-08-30T17:17:00.902Z,18.65
2022-08-30T17:19:30.311Z,18.63
2022-08-30T17:21:59.939Z,18.60
2022-08-30T17:24:29.020Z,18.59
2022-08-30T17:26:58.532Z,18.58
2022-08-30T17:29:27.408Z,18.56
2022-08-30T17:31:56.905Z,18.56
2022-08-30T17:34:26.975Z,18.56
2022-08-30T17:37:00.427Z,18.58
2022-08-30T17:39:36.120Z,18.56
2022-08-30T17:42:13.892Z,18.58
2022-08-30T17:44:45.065Z,18.54
2022-08-30T17:47:16.937Z,18.55
2022-08-30T17:50:00.646Z,18.55
2022-08-30T17:52:35.131Z,18.55
2022-08-30T17:55:12.251Z,18.52
2022-08-30T17:57:44.881Z,18.52
2022-08-30T18:00:16.969Z,18.49
2022-08-30T18:02:54.563Z,18.48
2022-08-30T18:05:28.507Z,18.48
2022-08-30T18:08:11.640Z,18.45
2022-08-30T18:10:43.300Z,18.42
2022-08-30T18:13:14.529Z,18.40
2022-08-30T18:15:50.834Z,18.40
2022-08-30T18:18:25.152Z,18.40
2022-08-30T18:20:58.473Z,18.36
2022-08-30T18:23:36.404Z,18.32
2022-08-30T18:26:12.543Z,18.27
2022-08-30T18:28:47.143Z,18.25
2022-08-30T18:31:22.539Z,18.18
2022-08-30T18:33:53.374Z,18.18
2022-08-30T18:36:25.329Z,18.13
2022-08-30T18:38:57.411Z,18.10
2022-08-30T18:41:30.712Z,18.04
2022-08-30T18:44:26.194Z,18.01
2022-08-30T18:47:00.384Z,17.97
2022-08-30T18:49:48.855Z,17.93
2022-08-30T18:52:29.752Z,17.89
2022-08-30T18:55:01.246Z,17.87
2022-08-30T18:57:32.691Z,17.86
2022-08-30T19:00:05.409Z,17.85
2022-08-30T19:02:43.612Z,17.80
2022-08-30T19:05:16.135Z,17.77
2022-08-30T19:07:50.039Z,17.75
2022-08-30T19:10:29.503Z,17.72
2022-08-30T19:13:03.429Z,17.70
2022-08-30T19:15:35.373Z,17.66
2022-08-30T19:18:16.715Z,17.65
2022-08-30T19:20:52.294Z,17.64
2022-08-30T19:23:23.326Z,17.62
2022-08-30T19:25:55.792Z,17.62
2022-08-30T19:28:27.032Z,17.58
2022-08-30T19:30:56.348Z,17.56
2022-08-30T19:33:25.110Z,17.56
2022-08-30T19:35:54.930Z,17.52
2022-08-30T19:38:24.129Z,17.51
2022-08-30T19:40:58.908Z,17.49
2022-08-30T19:43:28.188Z,17.51
2022-08-30T19:46:00.478Z,17.46
2022-08-30T19:48:32.789Z,17.43
2022-08-30T19:51:07.455Z,17.42
2022-08-30T19:53:36.682Z,17.41
2022-08-30T19:56:06.382Z,17.39
2022-08-30T19:58:36.081Z,17.37
2022-08-30T20:01:12.859Z,17.34
2022-08-30T20:03:54.150Z,17.38
2022-08-30T20:06:25.658Z,17.37
2022-08-30T20:08:56.658Z,17.35
2022-08-30T20:11:27.362Z,17.34
2022-08-30T20:13:56.950Z,17.31
2022-08-30T20:16:35.487Z,17.30
2022-08-30T20:19:08.351Z,17.32
2022-08-30T20:21:38.173Z,17.32
2022-08-30T20:24:09.489Z,17.28
2022-08-30T20:26:39.111Z,17.31
2022-08-30T20:29:07.909Z,17.30
2022-08-30T20:31:36.977Z,17.31
2022-08-30T20:34:05.786Z,17.31
2022-08-30T20:36:35.643Z,17.32
2022-08-30T20:39:09.045Z,17.35
2022-08-30T20:41:38.305Z,17.35
2022-08-30T20:44:11.922Z,17.32
2022-08-30T20:46:45.248Z,17.31
2022-08-30T20:49:14.805Z,17.34
2022-08-30T20:51:43.388Z,17.30
2022-08-30T20:54:13.031Z,17.30
2022-08-30T20:56:41.589Z,17.30
2022-08-30T20:59:11.648Z,17.30
2022-08-30T21:01:40.270Z,17.27
2022-08-30T21:04:10.202Z,17.27
2022-08-30T21:06:38.748Z,17.24
2022-08-30T21:09:08.295Z,17.23
2022-08-30T21:11:38.709Z,17.23
2022-08-30T21:14:13.520Z,17.20
2022-08-30T21:16:42.806Z,17.18
2022-08-30T21:19:11.540Z,17.17
2022-08-30T21:21:40.186Z,17.17
2022-08-30T21:24:09.664Z,17.13
2022-08-30T21:26:39.665Z,17.13
2022-08-30T21:29:09.283Z,17.10
2022-08-30T21:31:38.502Z,17.10
2022-08-30T21:34:07.046Z,17.07
2022-08-30T21:36:47.811Z,17.04
2022-08-30T21:39:20.108Z,17.04
2022-08-30T21:41:49.900Z,17.04
2022-08-30T21:44:22.733Z,17.02
2022-08-30T21:46:52.313Z,17.02
2022-08-30T21:49:23.550Z,17.00
2022-08-30T21:51:54.208Z,17.00
2022-08-30T21:54:24.396Z,16.97
2022-08-30T21:56:59.985Z,16.97
2022-08-30T21:59:29.257Z,16.96
2022-08-30T22:01:59.044Z,16.95
2022-08-30T22:04:28.952Z,16.97
2022-08-30T22:06:58.840Z,16.95
2022-08-30T22:09:27.858Z,16.90
2022-08-30T22:11:56.938Z,16.92
2022-08-30T22:14:26.601Z,16.90
2022-08-30T22:16:56.287Z,16.90
2022-08-30T22:19:25.807Z,16.87
2022-08-30T22:22:01.338Z,16.86
2022-08-30T22:24:31.984Z,16.83
2022-08-30T22:27:04.572Z,16.83
2022-08-30T22:29:33.840Z,16.82
2022-08-30T22:32:04.060Z,16.83
2022-08-30T22:34:33.333Z,16.82
2022-08-30T22:37:02.463Z,16.79
2022-08-30T22:39:31.682Z,16.79
2022-08-30T22:42:01.264Z,16.73
2022-08-30T22:44:30.311Z,16.69
2022-08-30T22:47:00.086Z,16.69
2022-08-30T22:49:29.557Z,16.66
2022-08-30T22:52:01.144Z,16.65
2022-08-30T22:54:32.658Z,16.61
2022-08-30T22:57:04.504Z,16.59
2022-08-30T22:59:33.999Z,16.56
2022-08-30T23:02:03.416Z,16.52
2022-08-30T23:04:35.827Z,16.54
2022-08-30T23:07:05.238Z,16.51
2022-08-30T23:09:33.745Z,16.49
2022-08-30T23:12:03.163Z,16.48
2022-08-30T23:14:31.719Z,16.47
2022-08-30T23:17:00.518Z,16.45
2022-08-30T23:19:29.183Z,16.42
2022-08-30T23:21:58.237Z,16.40
2022-08-30T23:24:48.908Z,16.41
2022-08-30T23:27:36.609Z,16.38
2022-08-30T23:30:25.299Z,16.38
2022-08-30T23:33:12.691Z,16.34
2022-08-30T23:35:59.638Z,16.35
2022-08-30T23:38:46.547Z,16.37
2022-08-30T23:41:34.133Z,16.35
2022-08-30T23:44:22.157Z,16.32
2022-08-30T23:47:09.145Z,16.32
2022-08-30T23:49:56.685Z,16.34
2022-08-30T23:52:44.121Z,16.32
2022-08-30T23:55:30.951Z,16.32
2022-08-30T23:58:18.215Z,16.31
